Time;durP1;ratioP1;P1;durP2;ratioP2;P2;SDS_P1;SDS_P2;PMS_P1;PMS_P2;Temp;Humidity;BMP_temperature;BMP_pressure;BME280_temperature;BME280_humidity;BME280_pressure;Samples;Min_cycle;Max_cycle;Signal;HPM_P1;HPM_P2
2020/12/28 00:04:13;;;;;;;;;;;;;;;;;;;;;
2020/12/28 00:11:12;;;;;;;0.55;0.47;;;6.50;99.90;;;;;;6058722;23;20180;-85
2020/12/28 00:30:33;;;;;;;0.60;0.60;;;6.30;99.90;;;;;;6135540;23;20212;-85
2020/12/28 01:27:01;;;;;;;1.17;1.00;;;6.40;99.90;;;;;;5861552;24;20194;-83
2020/12/28 01:30:01;;;;;;;;;;;;;;;;;;;;;
2020/12/28 01:33:13;;;;;;;1.13;0.90;;;6.40;99.90;;;;;;5998258;23;20185;-84
2020/12/28 01:36:08;;;;;;;0.52;0.52;;;6.40;99.90;;;;;;6069720;23;20181;-84
2020/12/28 01:59:23;;;;;;;0.77;0.77;;;6.40;99.90;;;;;;6166196;23;20203;-82
2020/12/28 02:05:17;;;;;;;5.03;1.02;;;6.40;99.90;;;;;;6174418;23;20185;-82
2020/12/28 02:08:20;;;;;;;0.90;0.63;;;6.30;99.90;;;;;;6128598;23;20205;-82
2020/12/28 02:57:39;;;;;;;0.70;0.70;;;6.10;99.90;;;;;;5765143;24;20218;-83
2020/12/28 03:00:52;;;;;;;0.60;0.60;;;6.00;99.90;;;;;;5962782;23;20240;-84
2020/12/28 03:04:11;;;;;;;;;;;;;;;;;;;;;
2020/12/28 03:11:26;;;;;;;;;;;;;;;;;;;;;
2020/12/28 04:09:35;;;;;;;;;;;;;;;;;;;;;
2020/12/28 04:15:20;;;;;;;;;;;;;;;;;;;;;
2020/12/28 04:18:14;;;;;;;1.02;0.93;;;5.70;99.90;;;;;;6197738;23;20202;-84
2020/12/28 04:25:18;;;;;;;0.80;0.80;;;5.70;99.90;;;;;;6120053;23;20203;-84
2020/12/28 04:33:57;;;;;;;1.23;0.93;;;5.70;99.90;;;;;;6191858;23;20208;-84
2020/12/28 04:36:46;;;;;;;1.25;1.15;;;5.70;99.90;;;;;;6198231;23;20284;-83
2020/12/28 04:45:44;;;;;;;0.70;0.70;;;5.60;99.90;;;;;;6064151;23;20177;-84
2020/12/28 04:55:47;;;;;;;0.90;0.90;;;5.50;99.90;;;;;;6166165;23;20181;-84
2020/12/28 05:02:57;;;;;;;0.95;0.93;;;5.50;99.90;;;;;;5861331;24;20250;-84
2020/12/28 05:13:23;;;;;;;0.80;0.80;;;5.50;99.90;;;;;;6118233;23;20210;-84
2020/12/28 05:19:53;;;;;;;0.93;0.93;;;5.40;99.90;;;;;;6045491;23;20216;-83
2020/12/28 05:22:38;;;;;;;0.80;0.80;;;5.40;99.90;;;;;;6178348;23;20521;-84
2020/12/28 05:36:03;;;;;;;1.42;1.08;;;5.30;99.90;;;;;;5961440;24;20625;-84
2020/12/28 05:39:10;;;;;;;4.30;1.00;;;5.40;99.90;;;;;;6011780;23;20176;-84
2020/12/28 05:48:34;;;;;;;0.88;0.88;;;5.20;99.90;;;;;;6184013;23;20179;-85
2020/12/28 05:51:29;;;;;;;3.35;0.90;;;5.10;99.90;;;;;;6196594;23;20185;-84
2020/12/28 05:57:38;;;;;;;0.93;0.75;;;5.10;99.90;;;;;;6179599;23;20283;-84
2020/12/28 06:04:31;;;;;;;;;;;;;;;;;;;;;
2020/12/28 06:11:23;;;;;;;;;;;;;;;;;;;;;
2020/12/28 06:24:01;;;;;;;0.90;0.90;;;5.10;99.90;;;;;;6128548;23;20604;-84
2020/12/28 06:26:34;;;;;;;0.98;0.90;;;5.10;99.90;;;;;;6196096;23;20206;-83
2020/12/28 06:29:45;;;;;;;;;;;;;;;;;;;;;
2020/12/28 06:42:44;;;;;;;1.73;0.93;;;5.20;99.90;;;;;;6193959;23;20207;-83
2020/12/28 06:45:21;;;;;;;0.60;0.60;;;5.20;99.90;;;;;;6196325;23;20193;-84
2020/12/28 06:47:50;;;;;;;1.83;1.20;;;5.20;99.90;;;;;;6196170;23;20196;-84
2020/12/28 06:50:32;;;;;;;0.70;0.70;;;5.20;99.90;;;;;;6195558;23;20182;-84
2020/12/28 06:53:11;;;;;;;0.65;0.60;;;5.20;99.90;;;;;;6197124;23;20174;-84
2020/12/28 06:55:49;;;;;;;1.13;0.75;;;5.10;99.90;;;;;;6196516;23;20179;-84
2020/12/28 06:58:29;;;;;;;1.92;0.95;;;5.10;99.90;;;;;;6195464;23;20262;-84
2020/12/28 07:01:08;;;;;;;0.63;0.63;;;5.10;99.90;;;;;;6195621;23;20207;-84
2020/12/28 07:03:52;;;;;;;0.90;0.90;;;5.00;99.90;;;;;;6197142;23;20172;-84
2020/12/28 07:06:19;;;;;;;0.98;0.98;;;5.00;99.90;;;;;;6198338;23;20197;-84
2020/12/28 07:08:46;;;;;;;0.77;0.77;;;5.00;99.90;;;;;;6197533;23;20256;-84
2020/12/28 07:11:21;;;;;;;0.70;0.65;;;5.00;99.90;;;;;;6197577;23;20182;-84
2020/12/28 07:13:48;;;;;;;5.28;1.08;;;5.00;99.90;;;;;;6198149;23;20189;-83
2020/12/28 07:16:15;;;;;;;1.45;1.10;;;5.10;99.90;;;;;;6198405;23;20259;-84
2020/12/28 07:18:43;;;;;;;1.77;1.13;;;5.00;99.90;;;;;;6198623;23;20239;-84
2020/12/28 07:21:10;;;;;;;1.00;0.90;;;5.00;99.90;;;;;;6198053;23;20179;-84
2020/12/28 07:23:37;;;;;;;1.42;1.33;;;5.00;99.90;;;;;;6197959;23;20199;-84
2020/12/28 07:26:06;;;;;;;1.77;1.25;;;5.00;99.90;;;;;;6198906;23;20201;-83
2020/12/28 07:28:39;;;;;;;2.05;0.90;;;5.00;99.90;;;;;;6198199;23;20185;-83
2020/12/28 07:31:11;;;;;;;1.88;1.10;;;5.00;99.90;;;;;;6197228;23;20175;-84
2020/12/28 07:33:44;;;;;;;2.13;1.85;;;5.00;99.90;;;;;;6196089;23;20196;-84
2020/12/28 07:36:13;;;;;;;1.67;1.10;;;5.00;99.90;;;;;;6196130;23;20212;-84
2020/12/28 07:38:41;;;;;;;1.73;1.60;;;5.00;99.90;;;;;;6197357;23;20664;-84
2020/12/28 07:41:13;;;;;;;2.55;1.55;;;5.00;99.90;;;;;;6196771;23;20230;-83
2020/12/28 07:43:47;;;;;;;3.08;2.22;;;5.00;99.90;;;;;;6196253;23;20175;-84
2020/12/28 07:46:20;;;;;;;3.20;1.65;;;5.10;99.90;;;;;;6197403;23;20191;-83
2020/12/28 07:48:48;;;;;;;1.98;1.70;;;5.10;99.90;;;;;;6196752;23;20170;-83
2020/12/28 07:51:19;;;;;;;1.67;1.58;;;5.20;99.90;;;;;;6197099;23;20687;-83
2020/12/28 07:53:49;;;;;;;1.77;1.67;;;5.20;99.90;;;;;;6196842;23;20564;-83
2020/12/28 07:56:23;;;;;;;3.05;1.50;;;5.20;99.90;;;;;;6196768;23;20263;-83
2020/12/28 07:58:59;;;;;;;1.95;1.85;;;5.20;99.90;;;;;;6197814;23;20267;-83
2020/12/28 08:01:31;;;;;;;3.35;1.73;;;5.20;99.90;;;;;;6197337;23;20174;-83
2020/12/28 08:04:01;;;;;;;1.92;1.13;;;5.30;99.90;;;;;;6196769;23;20203;-83
2020/12/28 08:06:29;;;;;;;1.42;0.95;;;5.30;99.90;;;;;;6197418;23;20211;-83
2020/12/28 08:09:03;;;;;;;1.27;1.17;;;5.20;99.90;;;;;;6196736;23;20202;-84
2020/12/28 08:11:30;;;;;;;1.33;1.23;;;5.20;99.90;;;;;;6196037;23;20172;-83
2020/12/28 08:13:58;;;;;;;1.48;1.30;;;5.20;99.90;;;;;;6197808;23;20184;-85
2020/12/28 08:16:35;;;;;;;1.65;1.45;;;5.20;99.90;;;;;;6192791;23;20199;-84
2020/12/28 08:19:03;;;;;;;1.30;1.20;;;5.10;99.90;;;;;;6194256;23;20170;-84
2020/12/28 08:21:42;;;;;;;0.90;0.90;;;5.10;99.90;;;;;;6194595;23;20220;-84
2020/12/28 08:24:19;;;;;;;0.85;0.85;;;5.10;99.90;;;;;;6196817;23;20165;-84
2020/12/28 08:26:51;;;;;;;1.35;1.25;;;5.10;99.90;;;;;;6197702;23;20206;-84
2020/12/28 08:29:30;;;;;;;2.35;1.15;;;5.00;99.90;;;;;;6196579;23;20503;-84
2020/12/28 08:32:06;;;;;;;1.70;0.82;;;5.00;99.90;;;;;;6197267;23;20163;-84
2020/12/28 08:34:34;;;;;;;1.45;1.00;;;4.90;99.90;;;;;;6196120;23;20163;-83
2020/12/28 08:37:03;;;;;;;1.42;1.20;;;4.90;99.90;;;;;;6196324;23;20210;-83
2020/12/28 08:39:45;;;;;;;1.25;1.00;;;4.80;99.90;;;;;;6196446;23;20190;-84
2020/12/28 08:42:16;;;;;;;1.00;0.77;;;4.80;99.90;;;;;;6197234;23;20623;-83
2020/12/28 08:44:43;;;;;;;4.07;1.08;;;4.70;99.90;;;;;;6197252;23;20167;-83
2020/12/28 08:47:11;;;;;;;0.65;0.60;;;4.60;99.90;;;;;;6195310;23;20276;-84
2020/12/28 08:49:41;;;;;;;1.20;1.10;;;4.50;99.90;;;;;;6195056;23;20185;-82
2020/12/28 08:52:10;;;;;;;1.00;0.85;;;4.40;99.90;;;;;;6193884;23;20168;-83
2020/12/28 08:54:36;;;;;;;0.80;0.60;;;4.40;99.90;;;;;;6193269;23;20180;-83
2020/12/28 08:57:03;;;;;;;1.05;1.05;;;4.40;99.90;;;;;;6190307;23;20260;-83
2020/12/28 08:59:29;;;;;;;1.25;0.80;;;4.60;99.90;;;;;;6189792;23;20192;-83
2020/12/28 09:01:58;;;;;;;1.17;0.90;;;4.80;99.90;;;;;;6192535;23;20180;-83
2020/12/28 09:04:25;;;;;;;3.38;1.30;;;4.80;99.90;;;;;;6191001;23;20654;-82
2020/12/28 09:06:52;;;;;;;2.35;1.15;;;4.90;99.90;;;;;;6191254;23;20279;-84
2020/12/28 09:09:36;;;;;;;1.95;1.48;;;5.00;99.90;;;;;;6191755;23;20197;-83
2020/12/28 09:12:02;;;;;;;1.10;1.00;;;5.00;99.90;;;;;;6190730;23;20161;-83
2020/12/28 09:14:28;;;;;;;1.60;1.50;;;5.10;99.90;;;;;;6191515;23;20222;-84
2020/12/28 09:16:56;;;;;;;1.50;1.40;;;5.10;99.90;;;;;;6191218;23;20203;-84
2020/12/28 09:19:22;;;;;;;1.92;1.60;;;5.10;99.90;;;;;;6192993;23;20279;-84
2020/12/28 09:21:52;;;;;;;2.38;1.90;;;5.20;99.90;;;;;;6193000;23;20189;-83
2020/12/28 09:24:18;;;;;;;3.40;1.30;;;5.30;99.90;;;;;;6190584;23;20168;-83
2020/12/28 09:26:45;;;;;;;0.75;0.75;;;5.20;99.90;;;;;;6192461;23;20205;-84
2020/12/28 09:29:11;;;;;;;1.15;0.95;;;5.20;99.90;;;;;;6194634;23;20233;-83
2020/12/28 09:31:37;;;;;;;1.40;1.00;;;5.20;99.90;;;;;;6198844;23;20182;-83
2020/12/28 09:34:04;;;;;;;0.85;0.85;;;5.10;99.90;;;;;;6197891;23;20182;-83
2020/12/28 09:36:30;;;;;;;0.95;0.95;;;5.10;99.90;;;;;;6198515;23;20217;-83
2020/12/28 09:38:57;;;;;;;0.75;0.75;;;5.10;99.90;;;;;;6196843;23;20182;-81
2020/12/28 09:41:24;;;;;;;1.17;1.08;;;5.20;99.90;;;;;;6191788;23;20502;-81
2020/12/28 09:43:50;;;;;;;1.17;1.17;;;5.20;99.90;;;;;;6191324;23;20175;-82
2020/12/28 09:46:19;;;;;;;1.60;1.50;;;5.20;99.90;;;;;;6192303;23;20204;-81
2020/12/28 09:48:47;;;;;;;1.60;1.50;;;5.30;99.90;;;;;;6192220;23;20181;-81
2020/12/28 09:51:16;;;;;;;1.60;1.50;;;5.30;99.90;;;;;;6192037;23;20561;-81
2020/12/28 09:53:42;;;;;;;1.48;1.38;;;5.40;99.90;;;;;;6192038;23;20184;-81
2020/12/28 09:56:09;;;;;;;2.38;1.58;;;5.40;99.90;;;;;;6192551;23;20203;-82
2020/12/28 09:58:36;;;;;;;2.58;1.55;;;5.50;99.90;;;;;;6192037;23;20203;-82
2020/12/28 10:01:05;;;;;;;2.08;1.92;;;5.50;99.90;;;;;;6192270;23;20169;-81
2020/12/28 10:03:31;;;;;;;2.45;1.70;;;5.50;99.90;;;;;;6192044;23;20482;-81
2020/12/28 10:05:58;;;;;;;2.80;1.50;;;5.50;99.90;;;;;;6191845;23;20203;-82
2020/12/28 10:08:26;;;;;;;2.38;2.15;;;5.50;99.90;;;;;;6192523;23;20180;-82
2020/12/28 10:10:52;;;;;;;2.35;2.25;;;5.50;99.90;;;;;;6191927;23;20181;-83
2020/12/28 10:13:18;;;;;;;2.95;2.80;;;5.60;99.90;;;;;;6192295;23;20229;-83
2020/12/28 10:15:52;;;;;;;2.75;2.05;;;5.60;99.90;;;;;;6192291;23;20178;-82
2020/12/28 10:18:41;;;;;;;6.30;2.88;;;5.60;99.90;;;;;;6193717;23;20197;-83
2020/12/28 10:21:09;;;;;;;2.95;2.05;;;5.50;99.90;;;;;;6194154;23;20245;-83
2020/12/28 10:23:36;;;;;;;2.83;2.50;;;5.50;99.90;;;;;;6192780;23;20220;-83
2020/12/28 10:26:06;;;;;;;2.80;2.60;;;5.50;99.90;;;;;;6193278;23;20233;-82
2020/12/28 10:28:40;;;;;;;2.55;2.42;;;5.60;99.90;;;;;;6193046;23;20174;-82
2020/12/28 10:31:09;;;;;;;2.22;2.13;;;5.60;99.90;;;;;;6191756;23;20186;-83
2020/12/28 10:33:36;;;;;;;2.47;2.28;;;5.70;99.90;;;;;;6191153;23;20562;-83
2020/12/28 10:36:05;;;;;;;2.50;2.30;;;5.70;99.90;;;;;;6191854;23;20284;-83
2020/12/28 10:38:32;;;;;;;4.00;3.38;;;5.70;99.90;;;;;;6191994;23;20544;-83
2020/12/28 10:41:09;;;;;;;2.33;2.22;;;5.70;99.90;;;;;;6192171;23;20258;-83
2020/12/28 10:43:54;;;;;;;2.10;2.00;;;5.80;99.90;;;;;;6192142;23;20247;-82
2020/12/28 10:46:20;;;;;;;3.30;2.28;;;5.80;99.90;;;;;;6192953;23;20200;-84
2020/12/28 10:48:51;;;;;;;3.20;3.00;;;5.80;99.90;;;;;;6193288;23;20236;-82
2020/12/28 10:51:52;;;;;;;3.60;3.30;;;5.90;99.90;;;;;;6193339;23;20201;-83
2020/12/28 10:54:30;;;;;;;3.13;2.88;;;6.00;99.90;;;;;;6193836;23;20177;-83
2020/12/28 10:57:01;;;;;;;3.10;2.90;;;6.00;99.90;;;;;;6193100;23;20209;-83
2020/12/28 10:59:33;;;;;;;4.07;3.53;;;6.00;99.90;;;;;;6193677;23;20193;-82
2020/12/28 11:02:01;;;;;;;2.75;2.58;;;5.90;99.90;;;;;;6193464;23;20163;-83
2020/12/28 11:04:28;;;;;;;3.65;3.28;;;5.90;99.90;;;;;;6194086;23;20261;-83
2020/12/28 11:07:00;;;;;;;3.50;2.88;;;5.90;99.90;;;;;;6192594;23;20204;-83
2020/12/28 11:09:29;;;;;;;3.30;3.00;;;5.90;99.90;;;;;;6192676;23;20177;-81
2020/12/28 11:11:55;;;;;;;3.45;3.15;;;5.90;99.90;;;;;;6192712;23;20185;-80
2020/12/28 11:14:22;;;;;;;3.10;2.90;;;5.90;99.90;;;;;;6193110;23;20185;-82
2020/12/28 11:16:48;;;;;;;4.20;3.00;;;5.90;99.90;;;;;;6192917;23;20525;-82
2020/12/28 11:19:22;;;;;;;4.40;3.28;;;5.90;99.90;;;;;;6193088;23;20185;-82
2020/12/28 11:21:50;;;;;;;3.80;3.17;;;5.90;99.90;;;;;;6195647;23;20153;-81
2020/12/28 11:24:18;;;;;;;4.35;3.53;;;6.00;99.90;;;;;;6207434;23;20175;-82
2020/12/28 11:26:53;;;;;;;3.90;3.10;;;6.00;99.90;;;;;;6202275;23;20208;-83
2020/12/28 11:29:19;;;;;;;2.88;2.67;;;6.00;99.90;;;;;;6207631;23;20232;-80
2020/12/28 11:31:53;;;;;;;3.30;3.10;;;6.10;99.90;;;;;;6206408;23;20195;-81
2020/12/28 11:34:20;;;;;;;2.85;2.65;;;6.10;99.90;;;;;;6204268;23;20221;-82
2020/12/28 11:36:48;;;;;;;3.45;3.20;;;6.10;99.90;;;;;;6209153;23;20253;-80
2020/12/28 11:39:15;;;;;;;2.67;2.50;;;6.10;99.90;;;;;;6209297;23;20180;-81
2020/12/28 11:41:49;;;;;;;3.75;3.20;;;6.20;99.90;;;;;;6202766;23;20249;-83
2020/12/28 11:44:36;;;;;;;4.18;3.88;;;6.20;99.90;;;;;;6200972;23;20222;-83
2020/12/28 11:47:16;;;;;;;4.40;3.35;;;6.30;99.90;;;;;;6200782;23;20201;-83
2020/12/28 11:49:52;;;;;;;4.38;3.25;;;6.30;99.90;;;;;;6197401;23;20170;-84
2020/12/28 11:52:20;;;;;;;2.95;2.75;;;6.30;99.90;;;;;;6198658;23;20574;-82
2020/12/28 11:54:56;;;;;;;3.13;2.92;;;6.40;99.90;;;;;;6197652;23;20210;-83
2020/12/28 11:57:44;;;;;;;4.05;3.65;;;6.40;99.90;;;;;;6195701;23;20666;-82
2020/12/28 12:00:14;;;;;;;3.92;3.63;;;6.50;99.90;;;;;;6193799;23;20192;-82
2020/12/28 12:03:04;;;;;;;3.13;2.90;;;6.50;99.90;;;;;;6193840;23;20172;-82
2020/12/28 12:05:36;;;;;;;3.17;2.88;;;6.60;99.90;;;;;;6193850;23;20169;-82
2020/12/28 12:11:36;;;;;;;3.22;2.88;;;6.70;99.90;;;;;;6173948;23;20519;-82
2020/12/28 12:14:04;;;;;;;2.22;2.13;;;6.80;99.90;;;;;;6194038;23;20171;-82
2020/12/28 12:16:52;;;;;;;2.58;2.40;;;6.80;99.90;;;;;;6193535;23;20210;-82
2020/12/28 12:19:19;;;;;;;2.20;2.08;;;6.90;99.90;;;;;;6096509;23;20179;-82
2020/12/28 12:21:52;;;;;;;4.55;2.13;;;6.90;99.90;;;;;;6193712;23;20183;-82
2020/12/28 12:24:19;;;;;;;7.15;2.53;;;6.80;99.90;;;;;;6194468;23;20199;-82
2020/12/28 12:26:50;;;;;;;3.42;2.20;;;6.80;99.90;;;;;;6193307;23;20206;-82
2020/12/28 12:29:20;;;;;;;3.42;2.92;;;6.70;99.90;;;;;;6194067;23;20187;-82
2020/12/28 12:31:51;;;;;;;1.80;1.70;;;6.60;99.90;;;;;;6193265;23;20819;-82
2020/12/28 12:34:28;;;;;;;3.45;3.17;;;6.50;99.90;;;;;;6193878;23;20164;-81
2020/12/28 12:39:41;;;;;;;2.78;2.67;;;6.40;99.90;;;;;;6192390;23;20257;-83
2020/12/28 12:42:12;;;;;;;2.05;1.70;;;6.30;99.90;;;;;;6194308;23;20559;-82
2020/12/28 12:44:45;;;;;;;2.28;1.63;;;6.20;99.90;;;;;;6193878;23;20186;-82
2020/12/28 12:47:15;;;;;;;1.83;1.73;;;6.10;99.90;;;;;;6193596;23;20228;-83
2020/12/28 12:49:48;;;;;;;1.90;1.80;;;6.00;99.90;;;;;;6194032;23;20178;-82
2020/12/28 12:52:27;;;;;;;2.20;1.63;;;5.90;99.90;;;;;;6193524;23;20499;-83
2020/12/28 12:54:58;;;;;;;1.27;1.25;;;6.00;99.90;;;;;;6194212;23;20163;-83
2020/12/28 12:57:36;;;;;;;1.85;1.70;;;5.90;99.90;;;;;;6193955;23;20209;-83
2020/12/28 13:00:06;;;;;;;1.70;1.60;;;5.90;99.90;;;;;;6194142;23;20196;-82
2020/12/28 13:02:43;;;;;;;2.78;1.63;;;5.90;99.90;;;;;;6193268;23;20263;-82
2020/12/28 13:05:16;;;;;;;1.55;1.45;;;5.80;99.90;;;;;;6193869;23;20631;-83
2020/12/28 13:07:52;;;;;;;2.45;1.67;;;5.80;99.90;;;;;;6193816;23;20285;-82
2020/12/28 13:10:20;;;;;;;1.52;1.42;;;5.90;99.90;;;;;;6194447;23;20559;-84
2020/12/28 13:12:54;;;;;;;1.33;1.23;;;5.80;99.90;;;;;;6193700;23;20260;-84
2020/12/28 13:15:20;;;;;;;1.92;1.77;;;5.80;99.90;;;;;;6194126;23;20169;-84
2020/12/28 13:18:00;;;;;;;1.88;1.77;;;5.80;99.90;;;;;;6193504;23;20238;-84
2020/12/28 13:20:31;;;;;;;1.20;1.20;;;5.70;99.90;;;;;;6194101;23;20165;-83
2020/12/28 13:23:07;;;;;;;1.40;1.30;;;5.70;99.90;;;;;;6193245;23;20176;-82
2020/12/28 13:25:37;;;;;;;1.40;1.30;;;5.60;99.90;;;;;;6194219;23;20502;-83
2020/12/28 13:28:40;;;;;;;;;;;;;;;;;;;;;
2020/12/28 13:31:07;;;;;;;1.42;1.27;;;5.70;99.90;;;;;;6194172;23;20215;-82
2020/12/28 13:39:57;;;;;;;1.33;1.23;;;5.60;99.90;;;;;;5959295;24;20182;-82
2020/12/28 13:42:24;;;;;;;1.48;1.30;;;5.60;99.90;;;;;;6038218;23;20681;-82
2020/12/28 13:44:52;;;;;;;1.27;0.80;;;5.60;99.90;;;;;;6076850;23;20604;-82
2020/12/28 13:47:19;;;;;;;1.35;1.25;;;5.50;99.90;;;;;;6194304;23;20294;-82
2020/12/28 13:52:37;;;;;;;0.93;0.93;;;5.50;99.90;;;;;;6191032;23;20182;-83
2020/12/28 13:55:13;;;;;;;1.10;1.10;;;5.40;99.90;;;;;;6194196;23;20224;-83
2020/12/28 13:57:42;;;;;;;0.82;0.82;;;5.40;99.90;;;;;;6194653;23;20230;-82
2020/12/28 14:00:31;;;;;;;1.20;1.20;;;5.50;99.90;;;;;;6194567;23;20197;-83
2020/12/28 14:06:52;;;;;;;1.42;1.33;;;5.40;99.90;;;;;;6192817;23;20234;-83
2020/12/28 14:09:46;;;;;;;1.63;1.55;;;5.40;99.90;;;;;;5931516;24;20190;-82
2020/12/28 14:12:31;;;;;;;1.10;0.90;;;5.30;99.90;;;;;;6069970;23;20199;-82
2020/12/28 14:15:13;;;;;;;1.13;1.00;;;5.30;99.90;;;;;;6148729;23;20212;-83
2020/12/28 14:18:06;;;;;;;;;;;;;;;;;;;;;
2020/12/28 14:20:38;;;;;;;2.05;1.50;;;5.20;99.90;;;;;;6192096;23;20209;-83
2020/12/28 14:23:07;;;;;;;0.68;0.68;;;5.20;99.90;;;;;;6193305;23;20176;-83
2020/12/28 14:25:34;;;;;;;1.33;1.23;;;5.10;99.90;;;;;;6193051;23;20199;-83
2020/12/28 14:28:06;;;;;;;0.85;0.60;;;5.10;99.90;;;;;;6192874;23;20569;-83
2020/12/28 14:30:46;;;;;;;1.17;1.08;;;5.00;99.90;;;;;;6192161;23;20215;-82
2020/12/28 14:33:13;;;;;;;0.88;0.88;;;5.00;99.90;;;;;;6192707;23;20685;-83
2020/12/28 14:35:55;;;;;;;;;;;;;;;;;;;;;
2020/12/28 14:38:42;;;;;;;1.00;1.00;;;5.00;99.90;;;;;;6192088;23;20607;-83
2020/12/28 14:41:15;;;;;;;1.13;1.13;;;4.90;99.90;;;;;;6174258;23;20175;-82
2020/12/28 14:43:44;;;;;;;1.30;1.20;;;4.80;99.90;;;;;;6192937;23;20495;-82
2020/12/28 14:46:18;;;;;;;1.30;1.20;;;4.90;99.90;;;;;;6192917;23;20225;-82
2020/12/28 14:48:44;;;;;;;2.47;1.48;;;4.80;99.90;;;;;;6193779;23;20197;-83
2020/12/28 14:51:18;;;;;;;1.80;1.40;;;4.90;99.90;;;;;;6192654;23;20185;-82
2020/12/28 14:53:52;;;;;;;1.85;1.70;;;4.90;99.90;;;;;;6193132;23;20633;-82
2020/12/28 14:56:21;;;;;;;0.85;0.70;;;4.90;99.90;;;;;;6193597;23;20204;-82
2020/12/28 14:58:48;;;;;;;1.08;1.08;;;4.90;99.90;;;;;;6193050;23;20207;-82
2020/12/28 15:01:18;;;;;;;1.50;1.40;;;4.90;99.90;;;;;;6192728;23;20283;-82
2020/12/28 15:03:46;;;;;;;1.10;1.10;;;4.90;99.90;;;;;;6192293;23;20183;-82
2020/12/28 15:06:12;;;;;;;1.20;1.10;;;4.90;99.90;;;;;;6191943;23;20263;-82
2020/12/28 15:08:41;;;;;;;1.20;1.20;;;4.90;99.90;;;;;;6192235;23;20187;-82
2020/12/28 15:11:07;;;;;;;1.58;1.35;;;4.70;99.90;;;;;;6192893;23;20572;-82
2020/12/28 15:13:35;;;;;;;0.85;0.85;;;4.70;99.90;;;;;;6192456;23;20181;-82
2020/12/28 15:16:03;;;;;;;2.00;1.50;;;4.70;99.90;;;;;;6192961;23;20201;-82
2020/12/28 15:22:15;;;;;;;1.80;1.52;;;4.70;99.90;;;;;;5931353;24;20223;-82
2020/12/28 15:28:04;;;;;;;1.17;0.88;;;4.70;99.90;;;;;;5930782;23;20323;-82
2020/12/28 15:30:34;;;;;;;2.53;1.17;;;4.70;99.90;;;;;;6166149;23;20187;-82
2020/12/28 15:33:01;;;;;;;1.45;1.35;;;4.60;99.90;;;;;;6192467;23;20168;-82
2020/12/28 15:35:30;;;;;;;1.00;1.00;;;4.60;99.90;;;;;;6191552;23;20196;-82
2020/12/28 15:41:15;;;;;;;;;;;;;;;;;;;;;
2020/12/28 16:05:25;;;;;;;1.00;0.88;;;4.60;99.90;;;;;;6174842;23;20209;-86
2020/12/28 19:21:11;;;;;;;;;;;;;;;;;;;;;
2020/12/28 19:24:52;;;;;;;;;;;;;;;;;;;;;
2020/12/28 22:42:17;;;;;;;;;;;;;;;;;;;;;
